Home > Products > Valid Products > MTR

000
SAUS45 KRIW 271357
MTRP60
METAR KP60 271356Z AUTO 00000KT 04/03 A3017 RMK AO1 SLP183 T00440028





000
SAUS45 KRIW 271257
MTRP60
METAR KP60 271256Z AUTO 00000KT 03/02 A3016 RMK AO1 SLP181 T00330022





000
SAUS45 KRIW 271257
MTRP60
METAR KP60 271256Z AUTO 00000KT 03/02 A3016 RMK AO1 SLP181 T00330022





000
SAUS45 KRIW 271157
MTRP60
METAR KP60 271156Z AUTO 00000KT 03/02 A3016 RMK AO1 SLP182 P0002
60002 70005 T00280022 10028 20006 53004





000
SAUS45 KRIW 271157
MTRP60
METAR KP60 271156Z AUTO 00000KT 03/02 A3016 RMK AO1 SLP182 P0002
60002 70005 T00280022 10028 20006 53004





000
SAUS45 KRIW 271057
MTRP60
METAR KP60 271056Z AUTO 00000KT 03/02 A3015 RMK AO1 SLP177 T00280017





000
SAUS45 KRIW 270957
MTRP60
METAR KP60 270956Z AUTO 00000KT 02/01 A3015 RMK AO1 SLP175 T00220011





000
SAUS45 KRIW 270857
MTRP60
METAR KP60 270856Z AUTO 00000KT 02/01 A3015 RMK AO1 SLP170 T00220011
55000





000
SAUS45 KRIW 270757
MTRP60
METAR KP60 270756Z AUTO 00000KT 02/01 A3014 RMK AO1 SLP169 T00220011





000
SAUS45 KRIW 270657
MTRP60
METAR KP60 270656Z AUTO 00000KT 01/00 A3014 RMK AO1 SLP175 T00110000
401110006





000
SAUS45 KRIW 270557
MTRP60
METAR KP60 270556Z AUTO 32003KT 01/00 A3014 RMK AO1 SLP176 T00110000
10067 20011 53002





000
SAUS45 KRIW 270457
MTRP60
METAR KP60 270456Z AUTO 00000KT 02/01 A3014 RMK AO1 SLP178 T00220006





000
SAUS45 KRIW 270358
MTRP60
METAR KP60 270356Z AUTO 00000KT 03/01 A3013 RMK AO1 SLP175 T00280011





000
SAUS45 KRIW 270257
MTRP60
METAR KP60 270256Z AUTO 00000KT 05/03 A3014 RMK AO1 SLP174 T00500028
55000





000
SAUS45 KRIW 270257
MTRP60
METAR KP60 270256Z AUTO 00000KT 05/03 A3014 RMK AO1 SLP174 T00500028
55000





000
SAUS45 KRIW 270157
MTRP60
METAR KP60 270156Z AUTO 00000KT 06/03 A3013 RMK AO1 SLP171 T00560028





000
SAUS45 KRIW 270057
MTRP60
METAR KP60 270056Z AUTO 00000KT 06/03 A3013 RMK AO1 SLP171 T00610033





000
SAUS45 KRIW 262357
MTRP60
METAR KP60 262356Z AUTO 11003KT 07/03 A3014 RMK AO1 SLP174 60003
T00670028 10111 20061 51010





000
SAUS45 KRIW 262257
MTRP60
METAR KP60 262256Z AUTO VRB03KT 07/02 A3014 RMK AO1 SLP178 T00670022





000
SAUS45 KRIW 262157
MTRP60
METAR KP60 262156Z AUTO VRB05KT 08/02 A3013 RMK AO1 SLP170 T00830017





000
SAUS45 KRIW 262057
MTRP60
METAR KP60 262056Z AUTO 00000KT 10/03 A3010 RMK AO1 SLP158 60003
T01000028 58002





000
SAUS45 KRIW 261957
MTRP60
METAR KP60 261956Z AUTO VRB03KT 09/02 A3012 RMK AO1 SLP162 T00940017





000
SAUS45 KRIW 261957
MTRP60
METAR KP60 261956Z AUTO VRB03KT 09/02 A3012 RMK AO1 SLP162 T00940017





000
SAUS45 KRIW 261857
MTRP60
METAR KP60 261856Z AUTO 26008G16KT 170V300 08/04 A3012 RMK AO1 PK
WND 28026/1822 SLP162 P0003 T00830039





000
SAUS45 KRIW 261857
MTRP60
METAR KP60 261856Z AUTO 26008G16KT 170V300 08/04 A3012 RMK AO1 PK
WND 28026/1822 SLP162 P0003 T00830039





000
SAUS45 KRIW 261757
MTRP60
METAR KP60 261756Z AUTO VRB04KT 09/04 A3011 RMK AO1 SLP157 T00890039
10094 20028 58003





000
SAUS45 KRIW 261757
MTRP60
METAR KP60 261756Z AUTO VRB04KT 09/04 A3011 RMK AO1 SLP157 T00890039
10094 20028 58003





000
SAUS45 KRIW 261657
MTRP60
METAR KP60 261656Z AUTO 00000KT 07/04 A3012 RMK AO1 SLP167 T00670039





000
SAUS45 KRIW 261657
MTRP60
METAR KP60 261656Z AUTO 00000KT 07/04 A3012 RMK AO1 SLP167 T00670039





000
SAUS45 KRIW 261557
MTRP60
METAR KP60 261556Z AUTO 00000KT 06/04 A3012 RMK AO1 SLP171 T00560039





000
SAUS45 KRIW 261557
MTRP60
METAR KP60 261556Z AUTO 00000KT 06/04 A3012 RMK AO1 SLP171 T00560039





000
SAUS45 KRIW 261457
MTRP60
METAR KP60 261456Z AUTO 00000KT 05/04 A3012 RMK AO1 SLP165 T00500039
51005





000
SAUS45 KRIW 261357
MTRP60
METAR KP60 261356Z AUTO 00000KT 04/03 A3012 RMK AO1 SLP164 T00440028





000
SAUS45 KRIW 261357
MTRP60
METAR KP60 261356Z AUTO 00000KT 04/03 A3012 RMK AO1 SLP164 T00440028





000
SAUS45 KRIW 261257
MTRP60
METAR KP60 261256Z AUTO 00000KT 03/03 A3011 RMK AO1 SLP165 T00330028





000
SAUS45 KRIW 261157
MTRP60
METAR KP60 261156Z AUTO 00000KT 03/02 A3010 RMK AO1 SLP161 P0003
60004 70015 T00280022 10033 20006 53004





000
SAUS45 KRIW 261057
MTRP60
METAR KP60 261056Z AUTO 00000KT 02/02 A3009 RMK AO1 SLP156 P0001
T00220017





000
SAUS45 KRIW 260957
MTRP60
METAR KP60 260956Z AUTO 00000KT 01/01 A3009 RMK AO1 SLP156 T00110006





000
SAUS45 KRIW 260857
MTRP60
METAR KP60 260856Z AUTO 31003KT 01/00 A3009 RMK AO1 SLP166 T00060000
58001





000
SAUS45 KRIW 260758
MTRP60
METAR KP60 260756Z AUTO 00000KT 01/01 A3009 RMK AO1 SLP153 T00110006





000
SAUS45 KRIW 260658
MTRP60
METAR KP60 260656Z AUTO 00000KT 02/02 A3010 RMK AO1 SLP152 T00220017
401171017





000
SAUS45 KRIW 260658
MTRP60
METAR KP60 260656Z AUTO 00000KT 02/02 A3010 RMK AO1 SLP152 T00220017
401171017





000
SAUS45 KRIW 260558
MTRP60
METAR KP60 260556Z AUTO 00000KT 03/02 A3009 RMK AO1 SLP151 T00330022
10072 20028 51010





000
SAUS45 KRIW 260558
MTRP60
METAR KP60 260556Z AUTO 00000KT 03/02 A3009 RMK AO1 SLP151 T00330022
10072 20028 51010





000
SAUS45 KRIW 260458
MTRP60
METAR KP60 260456Z AUTO 00000KT 03/02 A3009 RMK AO1 SLP160 T00280017





000
SAUS45 KRIW 260458
MTRP60
METAR KP60 260456Z AUTO 00000KT 03/02 A3009 RMK AO1 SLP160 T00280017





000
SAUS45 KRIW 260358
MTRP60
METAR KP60 260356Z AUTO 00000KT 03/02 A3007 RMK AO1 SLP147 T00330022





000
SAUS45 KRIW 260358
MTRP60
METAR KP60 260356Z AUTO 00000KT 03/02 A3007 RMK AO1 SLP147 T00330022





000
SAUS45 KRIW 260258
MTRP60
METAR KP60 260256Z AUTO 00000KT 06/03 A3006 RMK AO1 SLP141 T00610033
55001





000
SAUS45 KRIW 260258
MTRP60
METAR KP60 260256Z AUTO 00000KT 06/03 A3006 RMK AO1 SLP141 T00610033
55001





000
SAUS45 KRIW 260158
MTRP60
METAR KP60 260156Z AUTO 00000KT 07/04 A3005 RMK AO1 SLP141 T00670044





000
SAUS45 KRIW 260058
MTRP60
METAR KP60 260056Z AUTO 27003KT 07/05 A3004 RMK AO1 SLP148 T00670050





000
SAUS45 KRIW 252358
MTRP60
METAR KP60 252356Z AUTO 36003KT 07/03 A3006 RMK AO1 SLP159 P0003
60011 T00670028 10117 20056 56001





000
SAUS45 KRIW 252258
MTRP60
METAR KP60 252256Z AUTO 28008KT 08/04 A3006 RMK AO1 SLP156 T00780039





000
SAUS45 KRIW 252258
MTRP60
METAR KP60 252256Z AUTO 28008KT 08/04 A3006 RMK AO1 SLP156 T00780039





000
SAUS45 KRIW 252158
MTRP60
METAR KP60 252156Z AUTO 00000KT 09/04 A3005 RMK AO1 SLP148 P0004
T00890044





000
SAUS45 KRIW 252058
MTRP60
METAR KP60 252056Z AUTO 21008KT 120V230 06/03 A3006 RMK AO1 SLP164
P0004 60004 T00560028 53003





000
SAUS45 KRIW 251958
MTRP60
METAR KP60 251956Z AUTO VRB04KT 09/01 A3004 RMK AO1 SLP143 T00940011





000
SAUS45 KRIW 251857
MTRP60
METAR KP60 251856Z AUTO 10006KT 09/00 A3004 RMK AO1 SLP140 T00940000





000
SAUS45 KRIW 251857
MTRP60
METAR KP60 251856Z AUTO 10006KT 09/00 A3004 RMK AO1 SLP140 T00940000





000
SAUS45 KRIW 251757
MTRP60
METAR KP60 251756Z AUTO VRB03KT 08/00 A3005 RMK AO1 SLP142 T00830000
10083 21017 53002





000
SAUS45 KRIW 251657
MTRP60
METAR KP60 251656Z AUTO VRB03KT 06/01 A3005 RMK AO1 SLP145 T00610011





000
SAUS45 KRIW 251657
MTRP60
METAR KP60 251656Z AUTO VRB03KT 06/01 A3005 RMK AO1 SLP145 T00610011





000
SAUS45 KRIW 251557
MTRP60
METAR KP60 251556Z AUTO VRB03KT 07/02 A3004 RMK AO1 SLP133 T00720017





000
SAUS45 KRIW 251457
MTRP60
METAR KP60 251456Z AUTO 12003KT 04/01 A3004 RMK AO1 SLP143 T00440011
51002





000
SAUS45 KRIW 251457
MTRP60
METAR KP60 251456Z AUTO 12003KT 04/01 A3004 RMK AO1 SLP143 T00440011
51002





000
SAUS45 KRIW 251357
MTRP60
METAR KP60 251356Z AUTO 00000KT 03/01 A3004 RMK AO1 SLP135 T00280006





000
SAUS45 KRIW 251257
MTRP60
METAR KP60 251256Z AUTO 00000KT M01/M02 A3004 RMK AO1 SLP146
T10061017





000
SAUS45 KRIW 251157
MTRP60
METAR KP60 251156Z AUTO 00000KT M02/M03 A3004 RMK AO1 SLP150 70002
T10171028 10017 21017 55002





000
SAUS45 KRIW 251157
MTRP60
METAR KP60 251156Z AUTO 00000KT M02/M03 A3004 RMK AO1 SLP150 70002
T10171028 10017 21017 55002





000
SAUS45 KRIW 251057
MTRP60
METAR KP60 251056Z AUTO 00000KT M01/M02 A3003 RMK AO1 SLP148
T10111022





000
SAUS45 KRIW 251057
MTRP60
METAR KP60 251056Z AUTO 00000KT M01/M02 A3003 RMK AO1 SLP148
T10111022





000
SAUS45 KRIW 250958
MTRP60
METAR KP60 250956Z AUTO 31003KT M01/M02 A3003 RMK AO1 SLP135
T10111022





000
SAUS45 KRIW 250857
MTRP60
METAR KP60 250856Z AUTO 31003KT M01/M02 A3004 RMK AO1 SLP139
T10111022 56002





000
SAUS45 KRIW 250757
MTRP60
METAR KP60 250756Z AUTO 00000KT M01/M02 A3005 RMK AO1 SLP144
T10111022





000
SAUS45 KRIW 250657
MTRP60
METAR KP60 250656Z AUTO 00000KT 00/M01 A3004 RMK AO1 SLP139
T00001011 401110000





000
SAUS45 KRIW 250657
MTRP60
METAR KP60 250656Z AUTO 00000KT 00/M01 A3004 RMK AO1 SLP139
T00001011 401110000





000
SAUS45 KRIW 250557
MTRP60
METAR KP60 250556Z AUTO 31003KT 02/01 A3005 RMK AO1 SLP142 T00170006
10083 20017 50005





000
SAUS45 KRIW 250557
MTRP60
METAR KP60 250556Z AUTO 31003KT 02/01 A3005 RMK AO1 SLP142 T00170006
10083 20017 50005





000
SAUS45 KRIW 250457
MTRP60
METAR KP60 250456Z AUTO 00000KT 03/01 A3005 RMK AO1 SLP140 T00280011





000
SAUS45 KRIW 250357
MTRP60
METAR KP60 250356Z AUTO 00000KT 04/02 A3005 RMK AO1 SLP138 T00440017





000
SAUS45 KRIW 250258
MTRP60
METAR KP60 250256Z AUTO 00000KT 04/03 A3003 RMK AO1 SLP132 T00440028
55001





000
SAUS45 KRIW 250258
MTRP60
METAR KP60 250256Z AUTO 00000KT 04/03 A3003 RMK AO1 SLP132 T00440028
55001





000
SAUS45 KRIW 250157
MTRP60
METAR KP60 250156Z AUTO 00000KT 08/03 A3002 RMK AO1 SLP126 T00780028





000
SAUS45 KRIW 250057
MTRP60
METAR KP60 250056Z AUTO 00000KT 08/02 A3002 RMK AO1 SLP130 T00780022





000
SAUS45 KRIW 242357
MTRP60
METAR KP60 242356Z AUTO VRB03KT 07/04 A3004 RMK AO1 SLP143 P0001
60002 T00720039 10111 20061 50004





000
SAUS45 KRIW 242357
MTRP60
METAR KP60 242356Z AUTO VRB03KT 07/04 A3004 RMK AO1 SLP143 P0001
60002 T00720039 10111 20061 50004





000
SAUS45 KRIW 242257
MTRP60
METAR KP60 242256Z AUTO 00000KT 07/04 A3005 RMK AO1 SLP147 P0001
T00670039





000
SAUS45 KRIW 242257
MTRP60
METAR KP60 242256Z AUTO 00000KT 07/04 A3005 RMK AO1 SLP147 P0001
T00670039





000
SAUS45 KRIW 242157
MTRP60
METAR KP60 242156Z AUTO 11/00 A3002 RMK AO1 SLP127 T01060000





000
SAUS45 KRIW 242057
MTRP60
METAR KP60 242056Z AUTO 11/M01 A3002 RMK AO1 SLP122 T01061006 56006





000
SAUS45 KRIW 241957
MTRP60
METAR KP60 241956Z AUTO 06004KT 09/M01 A3003 RMK AO1 SLP128
T00941006





000
SAUS45 KRIW 241957
MTRP60
METAR KP60 241956Z AUTO 06004KT 09/M01 A3003 RMK AO1 SLP128
T00941006





000
SAUS45 KRIW 241857
MTRP60
METAR KP60 241856Z AUTO VRB05KT 09/M01 A3003 RMK AO1 SLP127
T00941006





000
SAUS45 KRIW 241757
MTRP60
METAR KP60 241756Z AUTO VRB03KT 08/M01 A3004 RMK AO1 SLP131
T00831011 10083 20000 56005





000
SAUS45 KRIW 241757
MTRP60
METAR KP60 241756Z AUTO VRB03KT 08/M01 A3004 RMK AO1 SLP131
T00831011 10083 20000 56005





000
SAUS45 KRIW 241657
MTRP60
METAR KP60 241656Z AUTO 08007KT 050V120 08/M01 A3005 RMK AO1 SLP135
T00781011





000
SAUS45 KRIW 241657
MTRP60
METAR KP60 241656Z AUTO 08007KT 050V120 08/M01 A3005 RMK AO1 SLP135
T00781011





000
SAUS45 KRIW 241557
MTRP60
METAR KP60 241556Z AUTO VRB04KT 06/M01 A3006 RMK AO1 SLP141
T00611011





000
SAUS45 KRIW 241557
MTRP60
METAR KP60 241556Z AUTO VRB04KT 06/M01 A3006 RMK AO1 SLP141
T00611011





000
SAUS45 KRIW 241458
MTRP60
METAR KP60 241456Z AUTO VRB05KT 06/M01 A3006 RMK AO1 SLP140
T00611006 58005





000
SAUS45 KRIW 241458
MTRP60
METAR KP60 241456Z AUTO VRB05KT 06/M01 A3006 RMK AO1 SLP140
T00611006 58005





    US Dept of Commerce
    National Oceanic and Atmospheric Administration
    National Weather Service
    1325 East West Highway
    Silver Spring, MD 20910
    Page Author: NWS Internet Services Team
Disclaimer
Information Quality
Credits
Glossary
Privacy Policy
Freedom of Information Act (FOIA)
About Us
Career Opportunities